Time;durP1;ratioP1;P1;durP2;ratioP2;P2;SDS_P1;SDS_P2;PMS_P1;PMS_P2;Temp;Humidity;BMP_temperature;BMP_pressure;BME280_temperature;BME280_humidity;BME280_pressure;Samples;Min_cycle;Max_cycle;Signal;HPM_P1;HPM_P2
2021/08/24 00:01:44;;;;;;;6.03;3.50;;;;;;;;;;5006980;28;20207;-70
2021/08/24 00:04:10;;;;;;;5.93;3.50;;;;;;;;;;4995444;28;20193;-70
2021/08/24 00:06:36;;;;;;;8.10;3.47;;;;;;;;;;5008175;28;20626;-71
2021/08/24 00:09:02;;;;;;;7.15;3.88;;;;;;;;;;4995797;28;20245;-71
2021/08/24 00:11:28;;;;;;;10.57;3.90;;;;;;;;;;5004734;28;20185;-71
2021/08/24 00:13:53;;;;;;;6.82;3.85;;;;;;;;;;4996820;28;20190;-71
2021/08/24 00:16:19;;;;;;;6.80;4.07;;;;;;;;;;5006574;28;20186;-71
2021/08/24 00:18:45;;;;;;;7.20;4.18;;;;;;;;;;4996871;28;20200;-71
2021/08/24 00:21:11;;;;;;;7.57;3.75;;;;;;;;;;5007592;28;20202;-71
2021/08/24 00:23:36;;;;;;;6.18;4.35;;;;;;;;;;4999368;28;20245;-71
2021/08/24 00:26:02;;;;;;;6.00;3.80;;;;;;;;;;5004215;28;20222;-70
2021/08/24 00:28:28;;;;;;;9.27;5.07;;;;;;;;;;4997362;28;20315;-71
2021/08/24 00:30:55;;;;;;;7.40;4.32;;;;;;;;;;5004140;28;20179;-71
2021/08/24 00:33:21;;;;;;;8.40;4.43;;;;;;;;;;5005394;28;20554;-71
2021/08/24 00:35:47;;;;;;;5.43;4.18;;;;;;;;;;4997682;28;20187;-71
2021/08/24 00:38:16;;;;;;;7.57;4.13;;;;;;;;;;5002917;28;21148;-71
2021/08/24 00:40:42;;;;;;;7.13;4.68;;;;;;;;;;4999098;28;20218;-71
2021/08/24 00:43:10;;;;;;;7.20;3.97;;;;;;;;;;5003415;28;20195;-71
2021/08/24 00:45:43;;;;;;;12.68;4.70;;;;;;;;;;5001760;28;20183;-71
2021/08/24 00:48:09;;;;;;;8.15;5.28;;;;;;;;;;5002612;28;20194;-71
2021/08/24 00:50:38;;;;;;;13.65;4.50;;;;;;;;;;4998507;28;20672;-71
2021/08/24 00:53:16;;;;;;;7.65;4.57;;;;;;;;;;5004104;28;20221;-71
2021/08/24 00:55:44;;;;;;;10.50;5.20;;;;;;;;;;4999594;28;20199;-71
2021/08/24 00:58:12;;;;;;;7.97;4.68;;;;;;;;;;5001909;28;20748;-71
2021/08/24 01:00:41;;;;;;;9.75;5.40;;;;;;;;;;4981999;28;20222;-71
2021/08/24 01:03:30;;;;;;;9.00;5.22;;;;;;;;;;5004332;28;20302;-71
2021/08/24 01:06:01;;;;;;;8.20;5.07;;;;;;;;;;4999141;28;20237;-71
2021/08/24 01:08:51;;;;;;;10.88;5.28;;;;;;;;;;5003437;28;20190;-71
2021/08/24 01:11:29;;;;;;;9.55;4.90;;;;;;;;;;4995693;28;20241;-71
2021/08/24 01:14:19;;;;;;;7.45;4.53;;;;;;;;;;5006338;28;20664;-71
2021/08/24 01:17:13;;;;;;;9.05;4.43;;;;;;;;;;4996156;28;20221;-71
2021/08/24 01:20:01;;;;;;;8.20;4.72;;;;;;;;;;4999717;28;20626;-71
2021/08/24 01:23:03;;;;;;;7.35;4.45;;;;;;;;;;4994109;28;20565;-71
2021/08/24 01:25:43;;;;;;;8.60;5.10;;;;;;;;;;5006210;28;20854;-71
2021/08/24 01:28:16;;;;;;;9.45;5.05;;;;;;;;;;4997099;28;20183;-71
2021/08/24 01:31:15;;;;;;;9.43;4.75;;;;;;;;;;5003255;28;20194;-71
2021/08/24 01:33:50;;;;;;;8.23;5.30;;;;;;;;;;4996175;28;20245;-71
2021/08/24 01:36:26;;;;;;;7.47;5.10;;;;;;;;;;5002805;28;20689;-71
2021/08/24 01:39:10;;;;;;;10.30;5.13;;;;;;;;;;4996012;28;20193;-71
2021/08/24 01:41:54;;;;;;;8.93;5.38;;;;;;;;;;5003227;28;20228;-71
2021/08/24 01:44:22;;;;;;;10.38;5.70;;;;;;;;;;5000380;28;20190;-71
2021/08/24 01:46:57;;;;;;;10.00;5.85;;;;;;;;;;5004965;28;20194;-71
2021/08/24 01:49:35;;;;;;;8.90;5.20;;;;;;;;;;4997258;28;20192;-71
2021/08/24 01:52:08;;;;;;;12.05;6.03;;;;;;;;;;5002313;28;20527;-71
2021/08/24 01:54:45;;;;;;;9.50;5.90;;;;;;;;;;4997449;28;20210;-71
2021/08/24 01:57:16;;;;;;;14.07;6.28;;;;;;;;;;5000398;28;20209;-71
2021/08/24 01:59:49;;;;;;;10.68;6.57;;;;;;;;;;4997076;28;20230;-71
2021/08/24 02:02:21;;;;;;;10.88;5.53;;;;;;;;;;5003301;28;20289;-71
2021/08/24 02:04:58;;;;;;;9.15;5.60;;;;;;;;;;4995420;28;20565;-71
2021/08/24 02:07:27;;;;;;;8.82;5.95;;;;;;;;;;4999630;28;20333;-70
2021/08/24 02:09:58;;;;;;;10.63;6.07;;;;;;;;;;4988960;28;20190;-71
2021/08/24 02:12:26;;;;;;;11.43;6.30;;;;;;;;;;4999472;28;20639;-71
2021/08/24 02:14:51;;;;;;;11.63;6.82;;;;;;;;;;4986289;28;20211;-71
2021/08/24 02:17:21;;;;;;;9.88;5.97;;;;;;;;;;4994026;28;20260;-71
2021/08/24 02:19:54;;;;;;;8.80;6.40;;;;;;;;;;4994379;28;20187;-71
2021/08/24 02:22:27;;;;;;;9.13;5.70;;;;;;;;;;5000873;28;20199;-71
2021/08/24 02:24:58;;;;;;;9.18;6.03;;;;;;;;;;4990468;28;20215;-71
2021/08/24 02:27:29;;;;;;;10.48;6.35;;;;;;;;;;4994817;28;20210;-71
2021/08/24 02:29:55;;;;;;;13.55;6.70;;;;;;;;;;4988417;28;20692;-71
2021/08/24 02:32:29;;;;;;;13.23;6.82;;;;;;;;;;4992517;28;20188;-71
2021/08/24 02:35:03;;;;;;;12.40;6.68;;;;;;;;;;4988188;28;20214;-71
2021/08/24 02:37:37;;;;;;;10.35;6.53;;;;;;;;;;4997575;28;20266;-71
2021/08/24 02:40:41;;;;;;;9.85;6.97;;;;;;;;;;4989103;28;20341;-71
2021/08/24 02:43:37;;;;;;;12.93;6.97;;;;;;;;;;4999299;28;20198;-71
2021/08/24 02:46:11;;;;;;;14.73;6.68;;;;;;;;;;4995076;28;20190;-71
2021/08/24 02:48:38;;;;;;;12.68;7.60;;;;;;;;;;5005366;28;20644;-71
2021/08/24 02:51:05;;;;;;;13.00;8.23;;;;;;;;;;4993383;28;20189;-71
2021/08/24 02:53:33;;;;;;;12.63;7.40;;;;;;;;;;5000774;28;20203;-71
2021/08/24 02:55:58;;;;;;;14.38;8.63;;;;;;;;;;5001199;28;21873;-70
2021/08/24 02:58:23;;;;;;;17.10;7.93;;;;;;;;;;4998643;28;20280;-70
2021/08/24 03:00:48;;;;;;;14.93;9.30;;;;;;;;;;5005050;28;20293;-71
2021/08/24 03:03:16;;;;;;;14.50;9.07;;;;;;;;;;4996990;28;20191;-71
2021/08/24 03:05:41;;;;;;;16.73;9.27;;;;;;;;;;5004784;28;20216;-71
2021/08/24 03:08:07;;;;;;;19.77;9.40;;;;;;;;;;4991879;28;20202;-70
2021/08/24 03:10:35;;;;;;;18.23;9.52;;;;;;;;;;5000891;28;20186;-70
2021/08/24 03:13:13;;;;;;;14.98;9.60;;;;;;;;;;4999191;28;20802;-70
2021/08/24 03:15:48;;;;;;;18.67;9.52;;;;;;;;;;5007011;28;20199;-70
2021/08/24 03:18:23;;;;;;;15.02;8.70;;;;;;;;;;4996680;28;20652;-70
2021/08/24 03:20:54;;;;;;;16.83;9.75;;;;;;;;;;5009678;28;20221;-70
2021/08/24 03:23:24;;;;;;;14.77;8.52;;;;;;;;;;4996924;28;20201;-70
2021/08/24 03:25:50;;;;;;;17.63;10.25;;;;;;;;;;5007386;28;20260;-70
2021/08/24 03:28:19;;;;;;;14.80;10.60;;;;;;;;;;4996756;28;20212;-70
2021/08/24 03:30:45;;;;;;;16.98;10.27;;;;;;;;;;5007599;28;20179;-70
2021/08/24 03:33:13;;;;;;;16.80;8.43;;;;;;;;;;4995884;28;20673;-70
2021/08/24 03:35:39;;;;;;;11.75;8.68;;;;;;;;;;5006960;28;20179;-70
2021/08/24 03:38:05;;;;;;;12.95;8.90;;;;;;;;;;4997620;28;20205;-70
2021/08/24 03:40:31;;;;;;;14.82;8.32;;;;;;;;;;5007708;28;20300;-70
2021/08/24 03:42:56;;;;;;;16.73;8.85;;;;;;;;;;5003006;28;20322;-70
2021/08/24 03:45:21;;;;;;;15.13;9.25;;;;;;;;;;5001224;28;20265;-70
2021/08/24 03:47:47;;;;;;;14.00;9.98;;;;;;;;;;5004523;28;20194;-70
2021/08/24 03:50:13;;;;;;;18.33;10.27;;;;;;;;;;5000259;28;20333;-70
2021/08/24 03:52:38;;;;;;;15.18;9.15;;;;;;;;;;5006388;28;20191;-70
2021/08/24 03:55:04;;;;;;;14.05;9.52;;;;;;;;;;5002213;28;20229;-70
2021/08/24 03:57:29;;;;;;;19.15;11.02;;;;;;;;;;5001708;28;20191;-70
2021/08/24 03:59:55;;;;;;;15.07;9.77;;;;;;;;;;4999887;28;21048;-70
2021/08/24 04:02:22;;;;;;;14.27;9.63;;;;;;;;;;5003457;28;20194;-70
2021/08/24 04:04:47;;;;;;;16.38;10.07;;;;;;;;;;5001267;28;20255;-71
2021/08/24 04:07:13;;;;;;;15.13;8.80;;;;;;;;;;5005200;28;20617;-71
2021/08/24 04:09:38;;;;;;;16.55;8.85;;;;;;;;;;5000041;28;20175;-70
2021/08/24 04:12:04;;;;;;;10.18;8.18;;;;;;;;;;5004444;28;20345;-70
2021/08/24 04:14:29;;;;;;;15.95;9.52;;;;;;;;;;5008335;28;20327;-70
2021/08/24 04:16:54;;;;;;;13.77;9.52;;;;;;;;;;4996530;28;20250;-71
2021/08/24 04:19:20;;;;;;;16.70;9.32;;;;;;;;;;5004512;28;20297;-72
2021/08/24 04:21:45;;;;;;;12.55;8.38;;;;;;;;;;4998426;28;20249;-71
2021/08/24 04:24:10;;;;;;;16.40;8.93;;;;;;;;;;5004533;28;20214;-71
2021/08/24 04:26:36;;;;;;;13.48;9.13;;;;;;;;;;4993548;28;20659;-71
2021/08/24 04:29:02;;;;;;;14.93;9.20;;;;;;;;;;4998160;28;20194;-71
2021/08/24 04:31:30;;;;;;;12.13;9.05;;;;;;;;;;4995220;28;20187;-71
2021/08/24 04:33:55;;;;;;;13.45;8.90;;;;;;;;;;5006810;28;20518;-70
2021/08/24 04:36:22;;;;;;;14.30;9.43;;;;;;;;;;4996742;28;20210;-71
2021/08/24 04:38:47;;;;;;;11.93;8.55;;;;;;;;;;5007707;28;20276;-71
2021/08/24 04:41:13;;;;;;;16.45;8.85;;;;;;;;;;4997322;28;20294;-71
2021/08/24 04:43:38;;;;;;;14.48;9.85;;;;;;;;;;5006793;28;20261;-70
2021/08/24 04:46:04;;;;;;;13.60;10.05;;;;;;;;;;5003303;28;21415;-70
2021/08/24 04:48:30;;;;;;;14.43;10.30;;;;;;;;;;4995501;28;20210;-70
2021/08/24 04:50:56;;;;;;;14.77;9.32;;;;;;;;;;5001970;28;20266;-70
2021/08/24 04:53:22;;;;;;;14.88;9.95;;;;;;;;;;4994987;28;20178;-71
2021/08/24 04:55:48;;;;;;;16.65;10.32;;;;;;;;;;5002670;28;20246;-69
2021/08/24 04:58:13;;;;;;;17.30;10.02;;;;;;;;;;4995216;28;20674;-70
2021/08/24 05:00:39;;;;;;;14.35;10.15;;;;;;;;;;5004921;28;20499;-70
2021/08/24 05:03:04;;;;;;;20.95;12.05;;;;;;;;;;4996000;28;20182;-70
2021/08/24 05:05:29;;;;;;;17.67;11.55;;;;;;;;;;5003115;28;20322;-70
2021/08/24 05:07:55;;;;;;;20.00;11.88;;;;;;;;;;4990538;28;20487;-70
2021/08/24 05:10:21;;;;;;;20.50;12.02;;;;;;;;;;4998602;28;20592;-70
2021/08/24 05:12:47;;;;;;;16.55;11.15;;;;;;;;;;4998864;28;20193;-71
2021/08/24 05:15:12;;;;;;;22.35;13.20;;;;;;;;;;5000443;28;20194;-71
2021/08/24 05:17:38;;;;;;;20.90;12.88;;;;;;;;;;5009908;28;20199;-71
2021/08/24 05:20:05;;;;;;;15.48;11.05;;;;;;;;;;4992901;28;20235;-71
2021/08/24 05:22:31;;;;;;;17.13;11.98;;;;;;;;;;5000404;28;20218;-71
2021/08/24 05:24:56;;;;;;;15.13;11.18;;;;;;;;;;4996234;28;20193;-70
2021/08/24 05:27:22;;;;;;;22.90;14.27;;;;;;;;;;5007153;28;20269;-70
2021/08/24 05:29:47;;;;;;;24.17;12.85;;;;;;;;;;4993569;28;20275;-71
2021/08/24 05:32:13;;;;;;;20.88;12.55;;;;;;;;;;5004516;28;20221;-70
2021/08/24 05:34:38;;;;;;;17.35;11.75;;;;;;;;;;4995231;28;20199;-71
2021/08/24 05:37:05;;;;;;;19.73;12.45;;;;;;;;;;5002490;28;20182;-71
2021/08/24 05:39:31;;;;;;;24.27;12.05;;;;;;;;;;4995177;28;20222;-70
2021/08/24 05:41:56;;;;;;;19.63;11.52;;;;;;;;;;5000572;28;20238;-71
2021/08/24 05:44:21;;;;;;;16.58;12.75;;;;;;;;;;4994411;28;20183;-71
2021/08/24 05:46:47;;;;;;;20.52;13.40;;;;;;;;;;5002451;28;20507;-72
2021/08/24 05:49:12;;;;;;;26.42;14.50;;;;;;;;;;4999576;28;20189;-71
2021/08/24 05:51:38;;;;;;;25.08;14.32;;;;;;;;;;4995185;28;20195;-71
2021/08/24 05:54:05;;;;;;;25.10;14.60;;;;;;;;;;5002483;28;20194;-71
2021/08/24 05:56:30;;;;;;;24.58;14.70;;;;;;;;;;5003530;28;20191;-71
2021/08/24 05:58:56;;;;;;;23.40;13.80;;;;;;;;;;4996654;28;20230;-71
2021/08/24 06:01:27;;;;;;;26.23;13.77;;;;;;;;;;4994576;28;20261;-72
2021/08/24 06:03:53;;;;;;;25.90;14.88;;;;;;;;;;5002340;28;20485;-71
2021/08/24 06:06:21;;;;;;;20.25;14.27;;;;;;;;;;4996190;28;20208;-70
2021/08/24 06:08:46;;;;;;;27.23;14.98;;;;;;;;;;5001778;28;20179;-71
2021/08/24 06:11:20;;;;;;;25.83;14.77;;;;;;;;;;4991655;28;20186;-70
2021/08/24 06:13:46;;;;;;;25.52;14.90;;;;;;;;;;4999134;28;20630;-71
2021/08/24 06:16:12;;;;;;;24.60;14.40;;;;;;;;;;4986155;28;20191;-71
2021/08/24 06:18:38;;;;;;;28.10;14.68;;;;;;;;;;4998996;28;20186;-71
2021/08/24 06:21:03;;;;;;;24.35;14.30;;;;;;;;;;5000852;28;20221;-71
2021/08/24 06:23:29;;;;;;;22.00;13.52;;;;;;;;;;4298794;28;10000841;-70
2021/08/24 06:25:54;;;;;;;25.58;14.63;;;;;;;;;;5002698;28;20194;-70
2021/08/24 06:28:19;;;;;;;20.75;13.68;;;;;;;;;;4993211;28;20606;-71
2021/08/24 06:30:45;;;;;;;24.42;14.02;;;;;;;;;;5004912;28;20716;-71
2021/08/24 06:33:10;;;;;;;22.65;13.82;;;;;;;;;;4996825;28;20221;-71
2021/08/24 06:35:36;;;;;;;22.55;13.15;;;;;;;;;;5002318;28;20202;-71
2021/08/24 06:38:01;;;;;;;20.15;13.52;;;;;;;;;;4992527;28;20195;-71
2021/08/24 06:40:26;;;;;;;17.92;12.88;;;;;;;;;;4993054;28;20321;-71
2021/08/24 06:42:53;;;;;;;22.02;12.90;;;;;;;;;;4998712;28;20241;-72
2021/08/24 06:45:25;;;;;;;21.67;13.32;;;;;;;;;;5003141;28;20237;-72
2021/08/24 06:47:51;;;;;;;19.95;12.07;;;;;;;;;;4996927;28;20562;-71
2021/08/24 06:50:18;;;;;;;24.10;12.65;;;;;;;;;;5006119;28;20245;-71
2021/08/24 06:52:43;;;;;;;21.10;12.05;;;;;;;;;;4999210;28;20179;-71
2021/08/24 06:55:09;;;;;;;18.10;11.52;;;;;;;;;;4999932;28;20256;-71
2021/08/24 06:57:36;;;;;;;21.48;10.82;;;;;;;;;;5005272;28;20201;-71
2021/08/24 07:00:11;;;;;;;20.98;10.98;;;;;;;;;;4997003;28;20332;-72
2021/08/24 07:02:38;;;;;;;20.25;10.38;;;;;;;;;;4998719;28;20234;-71
2021/08/24 07:05:05;;;;;;;15.07;10.05;;;;;;;;;;4995973;28;20218;-71
2021/08/24 07:07:30;;;;;;;14.32;10.63;;;;;;;;;;4996812;28;20526;-71
2021/08/24 07:09:56;;;;;;;16.92;9.35;;;;;;;;;;4993000;28;20198;-71
2021/08/24 07:12:21;;;;;;;13.23;9.05;;;;;;;;;;5002904;28;20183;-71
2021/08/24 07:14:46;;;;;;;14.88;8.90;;;;;;;;;;4993096;28;20535;-71
2021/08/24 07:17:11;;;;;;;17.35;9.63;;;;;;;;;;4999912;28;20218;-71
2021/08/24 07:19:37;;;;;;;12.27;8.63;;;;;;;;;;4986701;28;20197;-71
2021/08/24 07:22:03;;;;;;;16.70;8.77;;;;;;;;;;4996668;28;20234;-71
2021/08/24 07:24:28;;;;;;;11.93;8.00;;;;;;;;;;5001129;28;20296;-71
2021/08/24 07:26:54;;;;;;;14.73;8.38;;;;;;;;;;5004971;28;20182;-71
2021/08/24 07:29:19;;;;;;;12.32;7.93;;;;;;;;;;5007902;28;20191;-71
2021/08/24 07:31:45;;;;;;;10.82;7.45;;;;;;;;;;4996971;28;20182;-72
2021/08/24 07:34:11;;;;;;;12.90;8.48;;;;;;;;;;5006467;28;20187;-71
2021/08/24 07:36:36;;;;;;;14.02;7.72;;;;;;;;;;4996083;28;20208;-71
2021/08/24 07:39:04;;;;;;;16.40;7.97;;;;;;;;;;5003499;28;20198;-71
2021/08/24 07:41:29;;;;;;;12.43;8.35;;;;;;;;;;4997595;28;20286;-71
2021/08/24 07:43:55;;;;;;;14.68;8.75;;;;;;;;;;5006598;28;20194;-71
2021/08/24 07:46:20;;;;;;;15.50;8.95;;;;;;;;;;4998726;28;20314;-71
2021/08/24 07:48:46;;;;;;;16.65;9.18;;;;;;;;;;5008289;28;20190;-70
2021/08/24 07:51:11;;;;;;;14.70;10.13;;;;;;;;;;4999109;28;20175;-70
2021/08/24 07:53:37;;;;;;;15.73;10.68;;;;;;;;;;5005793;28;20214;-70
2021/08/24 07:56:06;;;;;;;16.45;10.90;;;;;;;;;;5007682;28;20175;-70
2021/08/24 07:58:31;;;;;;;12.40;10.68;;;;;;;;;;4997638;28;20206;-70
2021/08/24 08:00:56;;;;;;;13.68;11.82;;;;;;;;;;5006315;28;20740;-71
2021/08/24 08:03:22;;;;;;;18.00;13.77;;;;;;;;;;4994531;28;20214;-70
2021/08/24 08:05:47;;;;;;;18.55;13.00;;;;;;;;;;5007414;28;20206;-70
2021/08/24 08:08:13;;;;;;;17.67;14.48;;;;;;;;;;4997238;28;20190;-70
2021/08/24 08:10:39;;;;;;;19.30;13.95;;;;;;;;;;5004777;28;20190;-70
2021/08/24 08:13:04;;;;;;;19.50;14.70;;;;;;;;;;4996487;28;20197;-70
2021/08/24 08:15:33;;;;;;;19.80;15.52;;;;;;;;;;5007205;28;20258;-70
2021/08/24 08:18:00;;;;;;;18.88;15.43;;;;;;;;;;4998934;28;20551;-69
2021/08/24 08:20:26;;;;;;;17.88;14.90;;;;;;;;;;5006133;28;20187;-71
2021/08/24 08:22:51;;;;;;;17.80;15.07;;;;;;;;;;4997857;28;20191;-70
2021/08/24 08:25:16;;;;;;;18.67;14.50;;;;;;;;;;5005095;28;20740;-70
2021/08/24 08:27:42;;;;;;;21.13;14.43;;;;;;;;;;4999159;28;20213;-70
2021/08/24 08:30:09;;;;;;;16.30;12.82;;;;;;;;;;5007553;28;20253;-71
2021/08/24 08:32:38;;;;;;;17.92;14.63;;;;;;;;;;5005802;28;20183;-69
2021/08/24 08:35:04;;;;;;;15.65;13.10;;;;;;;;;;4996856;28;20186;-69
2021/08/24 08:37:29;;;;;;;14.35;12.15;;;;;;;;;;5005197;28;20190;-70
2021/08/24 08:39:54;;;;;;;17.48;12.57;;;;;;;;;;4998133;28;20647;-70
2021/08/24 08:43:09;;;;;;;16.50;11.95;;;;;;;;;;5001927;28;20220;-73
2021/08/24 08:45:50;;;;;;;14.93;9.85;;;;;;;;;;4998914;28;20226;-70
2021/08/24 08:48:20;;;;;;;12.40;9.18;;;;;;;;;;5021969;28;20240;-71
2021/08/24 08:50:52;;;;;;;10.95;8.07;;;;;;;;;;5003401;28;20195;-71
2021/08/24 08:53:53;;;;;;;9.13;7.80;;;;;;;;;;5001439;28;20206;-70
2021/08/24 08:56:51;;;;;;;10.80;8.05;;;;;;;;;;4996315;28;20191;-70
2021/08/24 08:59:24;;;;;;;14.18;8.32;;;;;;;;;;4996475;28;20226;-71
2021/08/24 09:02:13;;;;;;;9.25;7.63;;;;;;;;;;5006012;28;20308;-70
2021/08/24 09:04:44;;;;;;;8.98;7.07;;;;;;;;;;4999175;28;20194;-71
2021/08/24 09:07:20;;;;;;;11.60;7.32;;;;;;;;;;5005658;28;20658;-69
2021/08/24 09:09:46;;;;;;;9.23;6.38;;;;;;;;;;5001817;28;20182;-70
2021/08/24 09:12:12;;;;;;;9.18;6.93;;;;;;;;;;4999411;28;20193;-70
2021/08/24 09:14:45;;;;;;;9.90;7.65;;;;;;;;;;5008661;28;20281;-71
2021/08/24 09:17:13;;;;;;;10.25;6.60;;;;;;;;;;4994435;28;20191;-70
2021/08/24 09:19:50;;;;;;;11.07;6.75;;;;;;;;;;5003633;28;20203;-71
2021/08/24 09:22:17;;;;;;;11.02;7.65;;;;;;;;;;4997540;28;20607;-71
2021/08/24 09:24:44;;;;;;;11.85;7.32;;;;;;;;;;5005918;28;20264;-69
2021/08/24 09:27:43;;;;;;;11.00;6.50;;;;;;;;;;4997443;28;20272;-70
2021/08/24 09:30:09;;;;;;;9.45;5.63;;;;;;;;;;5003770;28;20194;-71
2021/08/24 09:32:36;;;;;;;8.88;6.18;;;;;;;;;;4996983;28;20187;-70
2021/08/24 09:35:25;;;;;;;7.93;5.60;;;;;;;;;;5005220;28;20206;-70
2021/08/24 09:37:51;;;;;;;7.18;5.18;;;;;;;;;;4994158;28;20194;-72
2021/08/24 09:40:37;;;;;;;6.93;4.72;;;;;;;;;;5003393;28;20183;-71
2021/08/24 09:43:27;;;;;;;9.48;4.50;;;;;;;;;;4996493;28;20182;-71
2021/08/24 09:46:17;;;;;;;8.32;4.75;;;;;;;;;;5003747;28;20608;-71
2021/08/24 09:49:03;;;;;;;6.43;4.80;;;;;;;;;;4993158;28;20190;-71
2021/08/24 09:52:05;;;;;;;5.32;4.35;;;;;;;;;;5003741;28;20606;-71
2021/08/24 09:54:41;;;;;;;5.20;4.45;;;;;;;;;;4992100;28;20210;-71
2021/08/24 09:57:18;;;;;;;6.55;5.22;;;;;;;;;;5002699;28;20270;-71
2021/08/24 10:00:07;;;;;;;7.30;4.50;;;;;;;;;;5001986;28;20273;-71
2021/08/24 10:02:39;;;;;;;5.15;4.28;;;;;;;;;;5001065;28;20255;-71
2021/08/24 10:05:33;;;;;;;4.97;4.38;;;;;;;;;;4998268;28;20221;-70
2021/08/24 10:08:01;;;;;;;4.40;3.42;;;;;;;;;;4994115;28;20198;-71
2021/08/24 10:10:30;;;;;;;6.32;2.95;;;;;;;;;;5003184;28;20179;-71
2021/08/24 10:12:59;;;;;;;3.92;3.25;;;;;;;;;;5005006;28;20193;-71
2021/08/24 10:15:37;;;;;;;4.80;2.95;;;;;;;;;;4996251;28;20524;-71
2021/08/24 10:18:12;;;;;;;4.15;3.15;;;;;;;;;;5003194;28;20182;-71
2021/08/24 10:21:00;;;;;;;7.25;3.22;;;;;;;;;;4994201;28;20638;-70
2021/08/24 10:23:29;;;;;;;4.93;3.10;;;;;;;;;;5002951;28;20198;-71
2021/08/24 10:25:58;;;;;;;7.20;3.40;;;;;;;;;;4996074;28;20190;-73
2021/08/24 10:28:49;;;;;;;5.22;3.30;;;;;;;;;;5003164;28;20273;-72
2021/08/24 10:31:40;;;;;;;6.35;2.78;;;;;;;;;;5000338;28;20322;-70
2021/08/24 10:34:44;;;;;;;6.07;3.15;;;;;;;;;;5002195;28;20244;-71
2021/08/24 10:37:25;;;;;;;5.43;3.10;;;;;;;;;;5001924;28;20190;-72
2021/08/24 10:40:13;;;;;;;4.35;2.88;;;;;;;;;;4995471;28;20193;-70
2021/08/24 10:43:23;;;;;;;4.50;2.90;;;;;;;;;;5002815;28;20282;-70
2021/08/24 10:46:21;;;;;;;5.00;2.80;;;;;;;;;;4995736;28;20213;-70
2021/08/24 10:48:47;;;;;;;3.50;2.40;;;;;;;;;;4993808;28;20210;-71
2021/08/24 10:51:20;;;;;;;3.58;2.30;;;;;;;;;;4992017;28;20266;-71
2021/08/24 10:54:13;;;;;;;4.30;2.15;;;;;;;;;;5001693;28;20191;-71
2021/08/24 10:56:49;;;;;;;5.18;2.70;;;;;;;;;;4996063;28;20212;-71
2021/08/24 10:59:41;;;;;;;5.00;2.40;;;;;;;;;;5001858;28;20308;-71
2021/08/24 11:02:38;;;;;;;4.60;2.33;;;;;;;;;;4990421;28;20614;-70
2021/08/24 11:05:16;;;;;;;3.80;2.22;;;;;;;;;;5004838;28;20199;-71
2021/08/24 11:08:13;;;;;;;3.28;2.35;;;;;;;;;;4994835;28;20186;-71
2021/08/24 11:10:51;;;;;;;4.03;2.22;;;;;;;;;;5005361;28;20293;-71
2021/08/24 11:13:19;;;;;;;3.80;2.63;;;;;;;;;;4995653;28;20190;-71
2021/08/24 11:16:26;;;;;;;4.70;2.45;;;;;;;;;;5007087;28;20187;-72
2021/08/24 11:19:03;;;;;;;4.90;2.78;;;;;;;;;;5009132;28;20185;-71
2021/08/24 11:21:40;;;;;;;4.07;2.30;;;;;;;;;;5002540;28;20206;-70
2021/08/24 11:24:14;;;;;;;4.70;2.53;;;;;;;;;;5007640;28;20592;-71
2021/08/24 11:27:29;;;;;;;4.55;2.67;;;;;;;;;;5003525;28;20201;-66
2021/08/24 11:30:09;;;;;;;4.00;2.33;;;;;;;;;;5005492;28;20209;-70
2021/08/24 11:32:41;;;;;;;4.38;2.38;;;;;;;;;;4997495;28;21266;-71
2021/08/24 11:35:16;;;;;;;6.88;2.55;;;;;;;;;;5007841;28;20191;-70
2021/08/24 11:37:59;;;;;;;3.72;2.38;;;;;;;;;;4998176;28;20194;-70
2021/08/24 11:40:43;;;;;;;4.00;2.45;;;;;;;;;;5002927;28;20186;-69
2021/08/24 11:43:16;;;;;;;5.03;2.20;;;;;;;;;;4997156;28;20325;-71
2021/08/24 11:45:46;;;;;;;4.38;2.38;;;;;;;;;;5007307;28;20187;-70
2021/08/24 11:48:23;;;;;;;2.80;2.10;;;;;;;;;;5000597;28;20209;-70
2021/08/24 11:50:59;;;;;;;5.30;2.55;;;;;;;;;;5006973;28;20194;-71
2021/08/24 11:53:34;;;;;;;3.67;2.40;;;;;;;;;;4998037;28;20305;-69
2021/08/24 11:56:01;;;;;;;4.55;2.17;;;;;;;;;;5004248;28;20214;-70
2021/08/24 11:58:40;;;;;;;4.30;2.28;;;;;;;;;;4302860;28;10000863;-71
2021/08/24 12:01:06;;;;;;;3.65;2.60;;;;;;;;;;5003369;28;20326;-71
2021/08/24 12:03:36;;;;;;;4.28;2.22;;;;;;;;;;5001685;28;20191;-71
2021/08/24 12:06:16;;;;;;;2.97;2.20;;;;;;;;;;5000745;28;20187;-72
2021/08/24 12:08:45;;;;;;;3.97;2.38;;;;;;;;;;4997558;28;20191;-72
2021/08/24 12:11:21;;;;;;;3.42;2.22;;;;;;;;;;4994531;28;20198;-71
2021/08/24 12:13:50;;;;;;;2.83;2.33;;;;;;;;;;5003127;28;20186;-70
2021/08/24 12:16:23;;;;;;;2.95;1.90;;;;;;;;;;4996254;28;20213;-70
2021/08/24 12:19:09;;;;;;;4.20;2.50;;;;;;;;;;5001240;28;20468;-71
2021/08/24 12:21:37;;;;;;;3.05;2.35;;;;;;;;;;5009875;28;20198;-71
2021/08/24 12:24:26;;;;;;;4.10;2.17;;;;;;;;;;5000095;28;20207;-72
2021/08/24 12:26:55;;;;;;;3.65;2.17;;;;;;;;;;4993028;28;20373;-71
2021/08/24 12:29:36;;;;;;;2.85;2.35;;;;;;;;;;4999397;28;20293;-71
2021/08/24 12:32:03;;;;;;;5.28;2.55;;;;;;;;;;4996011;28;20201;-70
2021/08/24 12:34:35;;;;;;;3.35;2.40;;;;;;;;;;5001768;28;20222;-70
2021/08/24 12:37:06;;;;;;;3.33;2.40;;;;;;;;;;4996188;28;20187;-71
2021/08/24 12:39:44;;;;;;;5.05;2.55;;;;;;;;;;4998961;28;20206;-71
2021/08/24 12:42:33;;;;;;;3.75;2.28;;;;;;;;;;4995253;28;20213;-71
2021/08/24 12:44:58;;;;;;;4.57;2.30;;;;;;;;;;5002940;28;20179;-73
2021/08/24 12:47:30;;;;;;;5.85;2.08;;;;;;;;;;4993914;28;20198;-71
2021/08/24 12:50:18;;;;;;;2.72;2.13;;;;;;;;;;5002380;28;20621;-70
2021/08/24 12:52:48;;;;;;;3.60;2.45;;;;;;;;;;4994425;28;20205;-71
2021/08/24 12:55:36;;;;;;;2.95;2.08;;;;;;;;;;5001361;28;20178;-71
2021/08/24 12:58:07;;;;;;;3.22;2.10;;;;;;;;;;4989758;28;20538;-72
2021/08/24 13:00:37;;;;;;;3.05;2.28;;;;;;;;;;4998729;28;20230;-72
2021/08/24 13:03:21;;;;;;;5.05;2.08;;;;;;;;;;4994343;28;20197;-72
2021/08/24 13:05:49;;;;;;;2.65;2.30;;;;;;;;;;5003638;28;20711;-72
2021/08/24 13:08:20;;;;;;;3.72;2.38;;;;;;;;;;4990464;28;21626;-71
2021/08/24 13:10:47;;;;;;;3.38;2.20;;;;;;;;;;5004150;28;20194;-72
2021/08/24 13:13:28;;;;;;;3.95;2.40;;;;;;;;;;4994646;28;20196;-71
2021/08/24 13:16:11;;;;;;;3.20;2.28;;;;;;;;;;5005849;28;20205;-70
2021/08/24 13:18:44;;;;;;;4.18;2.40;;;;;;;;;;4995706;28;20186;-71
2021/08/24 13:21:33;;;;;;;4.65;2.60;;;;;;;;;;4653887;28;9999675;-72
2021/08/24 13:24:05;;;;;;;3.42;2.28;;;;;;;;;;4991781;28;20236;-73
2021/08/24 13:26:42;;;;;;;3.67;2.47;;;;;;;;;;4999856;28;20194;-71
2021/08/24 13:29:12;;;;;;;2.95;2.30;;;;;;;;;;4987976;28;20205;-72
2021/08/24 13:31:43;;;;;;;5.03;2.35;;;;;;;;;;5004119;28;20231;-72
2021/08/24 13:34:32;;;;;;;2.83;1.92;;;;;;;;;;4989784;28;20630;-72
2021/08/24 13:36:58;;;;;;;4.97;2.67;;;;;;;;;;4999160;28;20893;-72
2021/08/24 13:39:24;;;;;;;2.83;2.15;;;;;;;;;;4993530;28;20242;-74
2021/08/24 13:41:54;;;;;;;3.15;2.20;;;;;;;;;;4999709;28;20203;-69
2021/08/24 13:44:24;;;;;;;3.58;2.20;;;;;;;;;;4989891;28;20563;-70
2021/08/24 13:47:00;;;;;;;5.68;2.30;;;;;;;;;;5000875;28;20666;-69
2021/08/24 13:49:26;;;;;;;5.60;2.38;;;;;;;;;;4992028;28;20643;-71
2021/08/24 13:51:58;;;;;;;3.22;2.38;;;;;;;;;;4999788;28;20191;-71
2021/08/24 13:54:39;;;;;;;5.30;2.20;;;;;;;;;;4999115;28;20198;-71
2021/08/24 13:57:09;;;;;;;2.95;2.22;;;;;;;;;;4997926;28;20197;-72
2021/08/24 13:59:49;;;;;;;6.13;2.42;;;;;;;;;;4992601;28;26751;-72
2021/08/24 14:02:15;;;;;;;9.27;2.50;;;;;;;;;;5001731;28;20202;-67
2021/08/24 14:04:45;;;;;;;4.95;2.55;;;;;;;;;;4997440;28;20190;-71
2021/08/24 14:07:24;;;;;;;3.63;2.45;;;;;;;;;;4999723;28;20693;-71
2021/08/24 14:10:24;;;;;;;3.72;2.25;;;;;;;;;;4997529;28;20190;-72
2021/08/24 14:12:51;;;;;;;4.47;2.72;;;;;;;;;;5002674;28;20202;-71
2021/08/24 14:15:34;;;;;;;2.90;2.13;;;;;;;;;;4995827;28;20284;-70
2021/08/24 14:18:10;;;;;;;4.90;3.15;;;;;;;;;;5002397;28;20546;-71
2021/08/24 14:20:39;;;;;;;3.53;2.22;;;;;;;;;;4990088;28;20245;-71
2021/08/24 14:23:24;;;;;;;4.72;2.20;;;;;;;;;;5001655;28;20670;-72
2021/08/24 14:25:58;;;;;;;4.07;2.35;;;;;;;;;;4987743;28;20217;-72
2021/08/24 14:28:39;;;;;;;4.13;2.55;;;;;;;;;;5000841;28;20222;-72
2021/08/24 14:31:10;;;;;;;4.35;2.80;;;;;;;;;;4989728;28;20202;-71
2021/08/24 14:33:40;;;;;;;2.95;1.92;;;;;;;;;;5004006;28;20186;-71
2021/08/24 14:36:20;;;;;;;3.72;2.60;;;;;;;;;;4997786;28;20201;-69
2021/08/24 14:38:49;;;;;;;6.43;2.40;;;;;;;;;;5000296;28;20282;-72
2021/08/24 14:41:18;;;;;;;6.40;2.60;;;;;;;;;;5000590;28;20222;-71
2021/08/24 14:43:46;;;;;;;3.95;2.78;;;;;;;;;;4997347;28;20195;-73
2021/08/24 14:46:24;;;;;;;4.55;2.60;;;;;;;;;;5003369;28;20190;-70
2021/08/24 14:48:56;;;;;;;3.75;1.98;;;;;;;;;;4996131;28;20186;-73
2021/08/24 14:51:22;;;;;;;4.18;2.55;;;;;;;;;;5006063;28;20623;-71
2021/08/24 14:53:52;;;;;;;3.88;2.60;;;;;;;;;;4998286;28;20256;-71
2021/08/24 14:56:32;;;;;;;3.33;2.50;;;;;;;;;;5004473;28;20527;-70
2021/08/24 14:59:20;;;;;;;3.03;2.15;;;;;;;;;;4994707;28;20649;-71
2021/08/24 15:02:08;;;;;;;5.43;2.83;;;;;;;;;;5004770;28;20292;-72
2021/08/24 15:04:35;;;;;;;5.85;2.75;;;;;;;;;;4996184;28;20203;-72